createdAt,value
2018-11-29T00:00:32.068Z,83.10
2018-11-29T00:03:00.513Z,83.10
2018-11-29T00:05:28.923Z,83.00
2018-11-29T00:07:57.318Z,83.00
2018-11-29T00:10:26.127Z,82.90
2018-11-29T00:12:54.579Z,82.80
2018-11-29T00:15:23.209Z,82.90
2018-11-29T00:17:51.721Z,82.80
2018-11-29T00:20:21.189Z,82.60
2018-11-29T00:22:50.324Z,82.70
2018-11-29T00:25:19.366Z,82.80
2018-11-29T00:27:48.519Z,83.00
2018-11-29T00:30:21.305Z,83.10
2018-11-29T00:32:50.628Z,83.10
2018-11-29T00:35:19.082Z,83.20
2018-11-29T00:37:47.488Z,83.20
2018-11-29T00:40:19.655Z,83.10
2018-11-29T00:42:48.098Z,83.10
2018-11-29T00:45:17.716Z,83.00
2018-11-29T00:47:47.218Z,82.90
2018-11-29T00:50:16.805Z,82.70
2018-11-29T00:52:46.040Z,82.50
2018-11-29T00:55:17.504Z,82.50
2018-11-29T00:57:46.674Z,82.50
2018-11-29T01:00:17.365Z,82.10
2018-11-29T01:02:45.854Z,82.00
2018-11-29T01:05:14.940Z,82.00
2018-11-29T01:07:43.821Z,82.10
2018-11-29T01:10:13.979Z,82.00
2018-11-29T01:12:42.588Z,82.10
2018-11-29T01:15:15.185Z,81.80
2018-11-29T01:17:44.255Z,81.80
2018-11-29T01:20:14.760Z,81.70
2018-11-29T01:22:43.140Z,81.80
2018-11-29T01:25:12.943Z,81.60
2018-11-29T01:27:41.947Z,81.50
2018-11-29T01:30:14.059Z,81.50
2018-11-29T01:32:42.801Z,81.50
2018-11-29T01:35:13.427Z,81.60
2018-11-29T01:37:41.849Z,81.50
2018-11-29T01:40:17.639Z,82.30
2018-11-29T01:42:58.374Z,81.40
2018-11-29T01:45:27.306Z,81.10
2018-11-29T01:47:55.732Z,81.00
2018-11-29T01:50:24.246Z,80.80
2018-11-29T01:52:52.689Z,80.60
2018-11-29T01:55:21.476Z,80.50
2018-11-29T01:57:49.912Z,80.40
2018-11-29T02:00:18.778Z,80.30
2018-11-29T02:02:49.406Z,80.30
2018-11-29T02:05:17.849Z,80.30
2018-11-29T02:07:46.219Z,80.40
2018-11-29T02:10:21.219Z,80.40
2018-11-29T02:12:50.071Z,80.50
2018-11-29T02:15:18.493Z,80.00
2018-11-29T02:17:46.857Z,80.10
2018-11-29T02:20:16.112Z,79.90
2018-11-29T02:22:44.502Z,80.20
2018-11-29T02:25:12.987Z,80.20
2018-11-29T02:27:41.385Z,80.10
2018-11-29T02:30:12.800Z,80.70
2018-11-29T02:32:41.181Z,80.00
2018-11-29T02:35:10.003Z,80.00
2018-11-29T02:37:38.615Z,80.00
2018-11-29T02:40:10.476Z,79.80
2018-11-29T02:42:39.010Z,79.80
2018-11-29T02:45:09.684Z,79.80
2018-11-29T02:47:38.058Z,79.70
2018-11-29T02:50:07.981Z,79.60
2018-11-29T02:52:37.440Z,79.70
2018-11-29T02:55:07.363Z,79.70
2018-11-29T02:57:35.944Z,79.80
2018-11-29T03:00:05.419Z,79.70
2018-11-29T03:02:33.914Z,79.60
2018-11-29T03:05:02.339Z,79.50
2018-11-29T03:07:30.725Z,79.50
2018-11-29T03:09:59.317Z,79.60
2018-11-29T03:12:27.722Z,79.50
2018-11-29T03:14:56.170Z,79.30
2018-11-29T03:17:24.928Z,79.00
2018-11-29T03:19:53.336Z,78.70
2018-11-29T03:22:21.706Z,78.90
2018-11-29T03:24:50.080Z,78.90
2018-11-29T03:27:18.473Z,79.00
2018-11-29T03:29:47.572Z,78.90
2018-11-29T03:32:16.005Z,78.90
2018-11-29T03:34:44.408Z,78.90
2018-11-29T03:37:12.808Z,78.70
2018-11-29T03:39:41.719Z,78.70
2018-11-29T03:42:10.200Z,78.80
2018-11-29T03:44:38.763Z,78.60
2018-11-29T03:47:07.240Z,78.70
2018-11-29T03:49:36.295Z,78.60
2018-11-29T03:52:04.643Z,78.50
2018-11-29T03:54:33.084Z,78.40
2018-11-29T03:57:01.569Z,78.60
2018-11-29T03:59:29.982Z,78.60
2018-11-29T04:01:58.923Z,78.70
2018-11-29T04:04:27.544Z,78.70
2018-11-29T04:06:56.130Z,78.70
2018-11-29T04:09:24.517Z,78.70
2018-11-29T04:11:52.892Z,78.50
2018-11-29T04:14:21.281Z,78.30
2018-11-29T04:16:49.741Z,78.10
2018-11-29T04:19:18.111Z,77.80
2018-11-29T04:21:46.554Z,77.40
2018-11-29T04:24:14.923Z,77.40
2018-11-29T04:26:43.313Z,77.20
2018-11-29T04:29:11.917Z,77.10
2018-11-29T04:31:40.361Z,77.00
2018-11-29T04:34:09.102Z,77.10
2018-11-29T04:36:37.572Z,77.00
2018-11-29T04:39:07.212Z,76.70
2018-11-29T04:41:35.657Z,76.40
2018-11-29T04:44:04.068Z,76.40
2018-11-29T04:46:46.056Z,76.30
2018-11-29T04:49:14.476Z,76.20
2018-11-29T04:51:43.007Z,75.40
2018-11-29T04:54:11.453Z,74.90
2018-11-29T04:56:39.861Z,74.60
2018-11-29T04:59:08.706Z,74.80
2018-11-29T05:01:37.573Z,74.70
2018-11-29T05:04:06.800Z,75.00
2018-11-29T05:06:35.193Z,75.00
2018-11-29T05:09:05.109Z,74.50
2018-11-29T05:11:33.538Z,74.20
2018-11-29T05:14:02.005Z,74.50
2018-11-29T05:16:30.422Z,74.40
2018-11-29T05:18:58.879Z,73.90
2018-11-29T05:21:27.347Z,73.90
2018-11-29T05:23:55.812Z,73.90
2018-11-29T05:26:24.211Z,73.60
2018-11-29T05:28:52.621Z,73.40
2018-11-29T05:31:21.029Z,73.40
2018-11-29T05:33:49.540Z,73.40
2018-11-29T05:36:17.959Z,73.70
2018-11-29T05:38:46.840Z,73.70
2018-11-29T05:41:15.672Z,73.60
2018-11-29T05:43:44.068Z,73.30
2018-11-29T05:46:12.555Z,73.30
2018-11-29T05:48:40.970Z,73.10
2018-11-29T05:51:09.575Z,72.40
2018-11-29T05:53:38.204Z,72.40
2018-11-29T05:56:07.164Z,72.60
2018-11-29T05:58:42.394Z,72.50
2018-11-29T06:01:13.649Z,72.60
2018-11-29T06:03:42.095Z,72.70
2018-11-29T06:06:10.484Z,72.90
2018-11-29T06:08:39.056Z,73.00
2018-11-29T06:11:07.448Z,72.90
2018-11-29T06:13:36.094Z,73.40
2018-11-29T06:16:05.140Z,72.40
2018-11-29T06:18:33.650Z,72.30
2018-11-29T06:21:02.261Z,71.70
2018-11-29T06:23:30.790Z,71.90
2018-11-29T06:25:59.192Z,71.80
2018-11-29T06:28:27.659Z,71.80
2018-11-29T06:30:56.093Z,71.80
2018-11-29T06:33:24.622Z,72.00
2018-11-29T06:35:53.009Z,71.80
2018-11-29T06:38:21.471Z,71.80
2018-11-29T06:40:50.231Z,71.80
2018-11-29T06:43:18.859Z,71.80
2018-11-29T06:45:47.305Z,71.80
2018-11-29T06:48:15.745Z,71.60
2018-11-29T06:50:44.226Z,71.80
2018-11-29T06:53:17.939Z,71.00
2018-11-29T06:55:46.410Z,70.40
2018-11-29T06:58:14.842Z,70.60
2018-11-29T07:00:43.375Z,70.80
2018-11-29T07:03:12.058Z,70.60
2018-11-29T07:05:40.439Z,70.60
2018-11-29T07:08:08.828Z,70.90
2018-11-29T07:10:37.196Z,71.10
2018-11-29T07:13:07.181Z,71.10
2018-11-29T07:15:35.589Z,71.30
2018-11-29T07:18:04.435Z,71.10
2018-11-29T07:20:32.902Z,71.00
2018-11-29T07:23:01.328Z,70.90
2018-11-29T07:25:29.857Z,71.00
2018-11-29T07:27:58.255Z,70.60
2018-11-29T07:30:26.652Z,70.50
2018-11-29T07:32:55.415Z,70.60
2018-11-29T07:35:24.121Z,70.70
2018-11-29T07:37:52.508Z,70.30
2018-11-29T07:40:20.922Z,70.20
2018-11-29T07:42:50.794Z,70.10
2018-11-29T07:45:20.443Z,70.50
2018-11-29T07:47:49.330Z,70.20
2018-11-29T07:50:20.042Z,70.00
2018-11-29T07:52:48.781Z,70.20
2018-11-29T07:55:18.661Z,69.60
2018-11-29T07:57:49.229Z,69.00
2018-11-29T08:00:18.136Z,69.20
2018-11-29T08:02:46.650Z,69.60
2018-11-29T08:05:16.171Z,69.50
2018-11-29T08:07:47.688Z,69.80
2018-11-29T08:10:18.360Z,69.80
2018-11-29T08:12:46.864Z,69.60
2018-11-29T08:15:17.692Z,69.60
2018-11-29T08:17:46.176Z,69.60
2018-11-29T08:20:16.404Z,69.30
2018-11-29T08:22:44.914Z,69.30
2018-11-29T08:25:13.314Z,69.40
2018-11-29T08:27:41.764Z,69.30
2018-11-29T08:30:12.416Z,68.60
2018-11-29T08:32:41.378Z,68.60
2018-11-29T08:35:12.372Z,68.60
2018-11-29T08:37:42.036Z,68.60
2018-11-29T08:40:18.962Z,68.60
2018-11-29T08:42:47.354Z,68.60
2018-11-29T08:45:16.220Z,68.50
2018-11-29T08:47:45.071Z,68.40
2018-11-29T08:50:14.337Z,68.20
2018-11-29T08:52:43.988Z,66.60
2018-11-29T08:55:17.034Z,67.00
2018-11-29T08:57:46.132Z,66.30
2018-11-29T09:00:19.569Z,65.10
2018-11-29T09:02:48.615Z,65.80
2018-11-29T09:05:17.710Z,65.90
2018-11-29T09:07:47.205Z,63.80
2018-11-29T09:10:19.276Z,64.20
2018-11-29T09:12:47.658Z,63.90
2018-11-29T09:15:17.212Z,64.00
2018-11-29T09:17:45.739Z,63.90
2018-11-29T09:20:19.468Z,63.40
2018-11-29T09:22:47.897Z,63.50
2018-11-29T09:25:18.313Z,62.40
2018-11-29T09:27:46.732Z,63.20
2018-11-29T09:30:19.517Z,62.70
2018-11-29T09:32:49.315Z,63.30
2018-11-29T09:35:17.734Z,62.30
2018-11-29T09:37:46.151Z,61.70
2018-11-29T09:40:16.639Z,61.90
2018-11-29T09:42:45.555Z,61.60
2018-11-29T09:45:17.968Z,61.90
2018-11-29T09:47:48.297Z,62.30
2018-11-29T09:50:17.794Z,62.40
2018-11-29T09:52:46.182Z,62.10
2018-11-29T09:55:15.586Z,61.90
2018-11-29T09:57:44.676Z,61.50
2018-11-29T10:00:33.891Z,61.80
2018-11-29T10:03:08.667Z,61.60
2018-11-29T10:05:37.562Z,61.20
2018-11-29T10:08:11.732Z,59.60
2018-11-29T10:10:35.266Z,59.90
2018-11-29T10:13:03.734Z,60.00
2018-11-29T10:15:32.122Z,59.60
2018-11-29T10:18:00.823Z,59.20
2018-11-29T10:20:29.185Z,59.20
2018-11-29T10:22:57.828Z,59.00
2018-11-29T10:25:26.529Z,58.30
2018-11-29T10:27:57.113Z,58.50
2018-11-29T10:30:30.525Z,57.60
2018-11-29T10:32:58.883Z,57.80
2018-11-29T10:35:27.278Z,58.00
2018-11-29T10:37:55.685Z,58.30
2018-11-29T10:40:24.089Z,58.40
2018-11-29T10:42:52.443Z,57.90
2018-11-29T10:45:21.129Z,58.90
2018-11-29T10:47:52.814Z,58.40
2018-11-29T10:50:20.843Z,57.20
2018-11-29T10:52:49.230Z,57.20
2018-11-29T10:55:18.938Z,57.40
2018-11-29T10:57:47.655Z,57.40
2018-11-29T11:00:30.776Z,57.30
2018-11-29T11:03:08.125Z,57.60
2018-11-29T11:05:37.678Z,57.50
2018-11-29T11:08:08.684Z,57.50
2018-11-29T11:10:36.506Z,57.50
2018-11-29T11:13:05.983Z,57.90
2018-11-29T11:15:34.418Z,56.60
2018-11-29T11:18:03.260Z,55.50
2018-11-29T11:20:31.636Z,55.60
2018-11-29T11:23:00.476Z,56.00
2018-11-29T11:25:29.446Z,55.00
2018-11-29T11:27:57.950Z,54.00
2018-11-29T11:30:27.580Z,53.50
2018-11-29T11:32:55.982Z,54.40
2018-11-29T11:35:27.746Z,53.70
2018-11-29T11:37:56.676Z,54.40
2018-11-29T11:40:26.030Z,54.20
2018-11-29T11:42:54.905Z,54.20
2018-11-29T11:45:24.180Z,53.80
2018-11-29T11:47:53.101Z,52.70
2018-11-29T11:50:22.828Z,53.00
2018-11-29T11:52:51.924Z,52.60
2018-11-29T11:55:20.845Z,52.90
2018-11-29T11:57:51.091Z,52.80
2018-11-29T12:00:24.965Z,53.30
2018-11-29T12:03:24.652Z,53.00
2018-11-29T12:05:53.618Z,53.80
2018-11-29T12:08:22.112Z,54.00
2018-11-29T12:10:51.067Z,53.50
2018-11-29T12:13:23.229Z,53.60
2018-11-29T12:15:52.154Z,53.40
2018-11-29T12:18:21.321Z,53.30
2018-11-29T12:20:50.267Z,53.20
2018-11-29T12:23:19.251Z,53.20
2018-11-29T12:25:48.285Z,53.70
2018-11-29T12:28:17.237Z,53.60
2018-11-29T12:30:48.910Z,53.80
2018-11-29T12:33:18.437Z,53.90
2018-11-29T12:35:47.371Z,53.60
2018-11-29T12:38:16.448Z,53.80
2018-11-29T12:40:45.379Z,53.90
2018-11-29T12:43:14.335Z,53.60
2018-11-29T12:45:43.279Z,53.50
2018-11-29T12:48:12.229Z,53.20
2018-11-29T12:50:41.252Z,52.90
2018-11-29T12:53:10.409Z,53.20
2018-11-29T12:55:41.979Z,53.30
2018-11-29T12:58:10.928Z,53.30
2018-11-29T13:00:39.953Z,53.10
2018-11-29T13:03:09.388Z,53.30
2018-11-29T13:05:39.111Z,53.40
2018-11-29T13:08:08.717Z,53.40
2018-11-29T13:10:37.796Z,53.00
2018-11-29T13:13:07.201Z,52.20
2018-11-29T13:15:36.170Z,52.60
2018-11-29T13:18:08.731Z,51.80
2018-11-29T13:20:37.705Z,52.10
2018-11-29T13:23:07.439Z,52.70
2018-11-29T13:25:36.681Z,52.30
2018-11-29T13:28:06.024Z,51.90
2018-11-29T13:30:36.108Z,51.80
2018-11-29T13:33:06.558Z,52.90
2018-11-29T13:35:35.860Z,53.10
2018-11-29T13:38:09.004Z,52.80
2018-11-29T13:40:37.979Z,52.60
2018-11-29T13:43:07.062Z,52.90
2018-11-29T13:45:36.061Z,53.00
2018-11-29T13:48:05.908Z,52.50
2018-11-29T13:50:34.928Z,52.90
2018-11-29T13:53:03.886Z,52.80
2018-11-29T13:55:32.883Z,52.40
2018-11-29T13:58:02.058Z,52.70
2018-11-29T14:00:31.035Z,52.80
2018-11-29T14:03:02.979Z,53.50
2018-11-29T14:05:32.072Z,53.30
2018-11-29T14:08:01.085Z,53.30
2018-11-29T14:10:30.128Z,53.40
2018-11-29T14:12:58.636Z,53.40
2018-11-29T14:15:29.348Z,53.30
2018-11-29T14:17:57.774Z,53.40
2018-11-29T14:20:26.220Z,53.40
2018-11-29T14:22:54.854Z,53.00
2018-11-29T14:25:23.270Z,53.30
2018-11-29T14:27:55.872Z,53.30
2018-11-29T14:30:25.511Z,53.60
2018-11-29T14:32:55.716Z,53.80
2018-11-29T14:35:24.664Z,53.60
2018-11-29T14:37:53.236Z,53.30
2018-11-29T14:40:26.700Z,53.10
2018-11-29T14:42:55.131Z,53.00
2018-11-29T14:45:25.240Z,53.00
2018-11-29T14:47:53.952Z,53.20
2018-11-29T14:50:36.084Z,53.30
2018-11-29T14:53:05.071Z,53.40
2018-11-29T14:55:33.542Z,53.70
2018-11-29T14:58:01.949Z,53.80
2018-11-29T15:00:30.433Z,54.10
2018-11-29T15:02:59.589Z,54.00
2018-11-29T15:05:29.429Z,54.10
2018-11-29T15:07:58.239Z,53.80
2018-11-29T15:10:26.739Z,53.10
2018-11-29T15:12:55.599Z,53.30
2018-11-29T15:15:24.325Z,53.40
2018-11-29T15:17:53.751Z,53.40
2018-11-29T15:20:32.205Z,52.90
2018-11-29T15:23:00.678Z,53.20
2018-11-29T15:25:29.159Z,53.50
2018-11-29T15:27:57.566Z,53.50
2018-11-29T15:30:26.023Z,53.40
2018-11-29T15:32:54.621Z,53.60
2018-11-29T15:35:22.969Z,53.30
2018-11-29T15:37:51.396Z,53.30
2018-11-29T15:40:19.931Z,53.50
2018-11-29T15:42:48.418Z,53.40
2018-11-29T15:45:22.075Z,53.10
2018-11-29T15:47:50.467Z,53.30
2018-11-29T15:50:19.261Z,53.40
2018-11-29T15:52:47.684Z,53.00
2018-11-29T15:55:21.112Z,53.60
2018-11-29T15:57:50.688Z,53.60
2018-11-29T16:00:21.016Z,53.60
2018-11-29T16:02:50.461Z,53.40
2018-11-29T16:05:18.942Z,53.30
2018-11-29T16:07:47.434Z,53.00
2018-11-29T16:10:18.454Z,53.00
2018-11-29T16:12:47.000Z,53.10
2018-11-29T16:15:16.330Z,52.70
2018-11-29T16:17:45.312Z,52.50
2018-11-29T16:20:17.495Z,52.60
2018-11-29T16:22:45.931Z,52.60
2018-11-29T16:25:14.392Z,53.10
2018-11-29T16:27:42.763Z,52.90
2018-11-29T16:30:14.289Z,52.90
2018-11-29T16:32:42.910Z,52.10
2018-11-29T16:35:11.304Z,51.90
2018-11-29T16:37:39.758Z,52.20
2018-11-29T16:40:09.120Z,52.30
2018-11-29T16:42:37.510Z,52.00
2018-11-29T16:45:09.239Z,52.30
2018-11-29T16:47:37.701Z,52.00
2018-11-29T16:50:08.387Z,52.00
2018-11-29T16:52:36.776Z,52.10
2018-11-29T16:55:06.781Z,52.20
2018-11-29T16:57:35.347Z,52.40
2018-11-29T17:00:05.663Z,52.30
2018-11-29T17:02:34.071Z,52.50
2018-11-29T17:05:02.578Z,52.90
2018-11-29T17:07:31.009Z,53.00
2018-11-29T17:09:59.465Z,53.10
2018-11-29T17:12:27.886Z,52.90
2018-11-29T17:14:56.282Z,53.20
2018-11-29T17:17:24.654Z,53.40
2018-11-29T17:19:53.089Z,53.50
2018-11-29T17:22:21.509Z,53.70
2018-11-29T17:24:49.878Z,53.90
2018-11-29T17:27:18.327Z,54.00
2018-11-29T17:29:46.757Z,54.10
2018-11-29T17:32:15.141Z,54.00
2018-11-29T17:34:43.609Z,54.20
2018-11-29T17:37:12.066Z,54.30
2018-11-29T17:39:40.479Z,53.60
2018-11-29T17:42:08.937Z,53.80
2018-11-29T17:44:37.382Z,54.10
2018-11-29T17:47:06.358Z,54.00
2018-11-29T17:49:34.742Z,54.10
2018-11-29T17:52:03.179Z,54.20
2018-11-29T17:54:31.587Z,54.50
2018-11-29T17:57:00.045Z,54.40
2018-11-29T17:59:28.900Z,54.50
2018-11-29T18:01:57.464Z,54.70
2018-11-29T18:04:25.903Z,54.90
2018-11-29T18:06:54.359Z,54.90
2018-11-29T18:09:22.802Z,54.70
2018-11-29T18:11:51.164Z,54.90
2018-11-29T18:14:19.578Z,55.10
2018-11-29T18:16:47.956Z,55.30
2018-11-29T18:19:16.337Z,55.30
2018-11-29T18:21:44.744Z,55.30
2018-11-29T18:24:13.130Z,55.20
2018-11-29T18:26:41.538Z,55.40
2018-11-29T18:29:10.019Z,55.50
2018-11-29T18:31:38.434Z,55.40
2018-11-29T18:34:06.827Z,55.60
2018-11-29T18:36:35.281Z,55.50
2018-11-29T18:39:03.984Z,55.50
2018-11-29T18:41:32.379Z,55.60
2018-11-29T18:44:00.750Z,55.50
2018-11-29T18:46:29.337Z,55.80
2018-11-29T18:48:57.707Z,55.90
2018-11-29T18:51:26.143Z,56.00
2018-11-29T18:53:54.545Z,56.00
2018-11-29T18:56:22.941Z,55.90
2018-11-29T18:58:51.321Z,56.00
2018-11-29T19:01:19.706Z,56.20
2018-11-29T19:03:48.153Z,56.30
2018-11-29T19:06:16.654Z,56.20
2018-11-29T19:08:45.122Z,56.20
2018-11-29T19:11:13.566Z,56.40
2018-11-29T19:13:41.993Z,56.40
2018-11-29T19:16:10.438Z,56.50
2018-11-29T19:18:38.899Z,56.60
2018-11-29T19:21:07.314Z,56.50
2018-11-29T19:23:35.702Z,56.50
2018-11-29T19:26:04.437Z,56.60
2018-11-29T19:28:32.856Z,56.60
2018-11-29T19:31:01.281Z,56.70
2018-11-29T19:33:29.693Z,56.70
2018-11-29T19:35:58.570Z,56.60
2018-11-29T19:38:27.180Z,56.60
2018-11-29T19:40:55.741Z,56.60
2018-11-29T19:43:24.139Z,56.70
2018-11-29T19:45:52.548Z,57.20
2018-11-29T19:48:21.109Z,56.80
2018-11-29T19:50:49.486Z,56.80
2018-11-29T19:53:23.321Z,56.80
2018-11-29T19:55:54.614Z,56.90
2018-11-29T19:58:23.023Z,56.80
2018-11-29T20:00:51.433Z,56.40
2018-11-29T20:03:19.847Z,56.90
2018-11-29T20:05:48.309Z,56.80
2018-11-29T20:08:16.785Z,56.80
2018-11-29T20:10:45.190Z,56.80
2018-11-29T20:13:14.992Z,56.60
2018-11-29T20:15:45.173Z,56.50
2018-11-29T20:18:14.243Z,56.50
2018-11-29T20:20:42.739Z,56.50
2018-11-29T20:23:12.280Z,56.50
2018-11-29T20:25:42.279Z,56.60
2018-11-29T20:28:10.763Z,56.60
2018-11-29T20:30:39.171Z,56.60
2018-11-29T20:33:07.989Z,56.70
2018-11-29T20:35:36.828Z,56.80
2018-11-29T20:38:06.458Z,56.60
2018-11-29T20:40:37.614Z,56.60
2018-11-29T20:43:06.529Z,56.60
2018-11-29T20:45:41.198Z,56.60
2018-11-29T20:48:11.618Z,56.60
2018-11-29T20:50:40.053Z,56.70
2018-11-29T20:53:09.128Z,56.50
2018-11-29T20:55:37.594Z,56.60
2018-11-29T20:58:07.338Z,56.40
2018-11-29T21:00:35.900Z,56.60
2018-11-29T21:03:04.534Z,56.70
2018-11-29T21:05:33.179Z,56.50
2018-11-29T21:08:02.394Z,56.30
2018-11-29T21:10:30.808Z,56.40
2018-11-29T21:13:04.600Z,56.30
2018-11-29T21:15:33.851Z,56.50
2018-11-29T21:18:02.889Z,56.50
2018-11-29T21:20:32.246Z,56.60
2018-11-29T21:23:01.287Z,56.60
2018-11-29T21:25:30.020Z,56.50
2018-11-29T21:27:58.468Z,56.60
2018-11-29T21:30:26.900Z,56.40
2018-11-29T21:32:55.324Z,56.50
2018-11-29T21:35:23.935Z,56.60
2018-11-29T21:37:53.618Z,56.60
2018-11-29T21:40:29.957Z,56.50
2018-11-29T21:42:58.784Z,56.50
2018-11-29T21:45:27.185Z,56.40
2018-11-29T21:47:55.628Z,56.40
2018-11-29T21:50:24.036Z,56.40
2018-11-29T21:52:52.473Z,56.30
2018-11-29T21:55:21.257Z,56.00
2018-11-29T21:57:50.066Z,56.00
2018-11-29T22:00:20.586Z,55.90
2018-11-29T22:02:52.852Z,56.00
2018-11-29T22:05:22.060Z,56.00
2018-11-29T22:07:51.249Z,56.10
2018-11-29T22:10:20.144Z,56.10
2018-11-29T22:12:48.928Z,56.10
2018-11-29T22:15:17.822Z,56.10
2018-11-29T22:18:23.513Z,56.10
2018-11-29T22:20:54.124Z,56.10
2018-11-29T22:23:22.994Z,55.90
2018-11-29T22:25:52.158Z,55.90
2018-11-29T22:28:21.086Z,56.20
2018-11-29T22:30:50.079Z,55.90
2018-11-29T22:33:18.970Z,56.20
2018-11-29T22:35:47.862Z,55.80
2018-11-29T22:38:16.647Z,55.90
2018-11-29T22:40:45.126Z,55.70
2018-11-29T22:43:13.503Z,56.10
2018-11-29T22:45:42.233Z,56.30
2018-11-29T22:48:10.613Z,56.40
2018-11-29T22:50:38.987Z,56.20
2018-11-29T22:53:07.539Z,56.10
2018-11-29T22:55:35.982Z,56.20
2018-11-29T22:58:04.475Z,56.00
2018-11-29T23:00:38.295Z,56.20
2018-11-29T23:03:07.321Z,56.20
2018-11-29T23:05:35.700Z,56.30
2018-11-29T23:08:04.215Z,56.40
2018-11-29T23:10:33.186Z,56.40
2018-11-29T23:13:01.578Z,56.40
2018-11-29T23:15:30.040Z,56.40
2018-11-29T23:17:58.439Z,56.40
2018-11-29T23:20:27.441Z,57.10
2018-11-29T23:22:55.924Z,56.50
2018-11-29T23:25:24.348Z,56.70
2018-11-29T23:27:52.758Z,56.80
2018-11-29T23:30:21.216Z,56.80
2018-11-29T23:32:49.592Z,56.80
2018-11-29T23:35:18.006Z,56.80
2018-11-29T23:37:46.379Z,56.80
2018-11-29T23:40:17.938Z,56.80
2018-11-29T23:42:46.714Z,56.80
2018-11-29T23:45:15.204Z,56.90
2018-11-29T23:47:43.830Z,57.00
2018-11-29T23:50:15.251Z,57.00
2018-11-29T23:52:44.032Z,57.00
2018-11-29T23:55:14.196Z,57.00
2018-11-29T23:57:42.722Z,57.00
